Time;durP1;ratioP1;P1;durP2;ratioP2;P2;SDS_P1;SDS_P2;PMS_P1;PMS_P2;Temp;Humidity;BMP_temperature;BMP_pressure;BME280_temperature;BME280_humidity;BME280_pressure;Samples;Min_cycle;Max_cycle;Signal;HPM_P1;HPM_P2
2023/12/13 00:01:53;;;;;;;6.50;1.60;;;;;;;;;;5018223;28;20454;-77
2023/12/13 00:04:19;;;;;;;5.33;1.40;;;;;;;;;;5014343;28;20029;-77
2023/12/13 00:06:45;;;;;;;2.87;1.43;;;;;;;;;;5018696;28;20121;-77
2023/12/13 00:09:12;;;;;;;4.07;1.20;;;;;;;;;;5025799;28;20447;-77
2023/12/13 00:11:38;;;;;;;2.63;1.10;;;;;;;;;;5007048;28;20076;-78
2023/12/13 00:14:05;;;;;;;4.63;1.20;;;;;;;;;;5010689;28;20029;-77
2023/12/13 00:16:31;;;;;;;10.03;1.10;;;;;;;;;;5017913;28;20017;-77
2023/12/13 00:18:57;;;;;;;2.37;1.27;;;;;;;;;;5027989;28;20156;-77
2023/12/13 00:21:23;;;;;;;7.60;1.13;;;;;;;;;;5031914;28;20029;-77
2023/12/13 00:23:52;;;;;;;2.80;0.93;;;;;;;;;;5014672;28;20033;-78
2023/12/13 00:26:18;;;;;;;7.33;1.20;;;;;;;;;;5016504;28;20041;-76
2023/12/13 00:28:47;;;;;;;6.10;1.27;;;;;;;;;;5015484;28;20040;-76
2023/12/13 00:31:15;;;;;;;2.97;1.27;;;;;;;;;;5030957;28;20512;-78
2023/12/13 00:33:42;;;;;;;3.27;1.47;;;;;;;;;;5013651;28;20108;-78
2023/12/13 00:36:08;;;;;;;7.43;1.40;;;;;;;;;;5012244;28;20099;-77
2023/12/13 00:38:34;;;;;;;5.23;1.10;;;;;;;;;;5030749;28;20040;-77
2023/12/13 00:41:00;;;;;;;4.87;1.30;;;;;;;;;;5027479;28;20191;-77
2023/12/13 00:43:26;;;;;;;3.50;1.10;;;;;;;;;;5027375;28;20490;-78
2023/12/13 00:45:52;;;;;;;5.50;0.80;;;;;;;;;;5012650;28;20044;-77
2023/12/13 00:48:18;;;;;;;3.90;0.80;;;;;;;;;;5031391;28;20061;-78
2023/12/13 00:50:44;;;;;;;3.47;0.73;;;;;;;;;;5012707;28;20037;-77
2023/12/13 00:53:12;;;;;;;6.03;1.20;;;;;;;;;;5012068;28;20056;-77
2023/12/13 00:55:38;;;;;;;5.17;0.87;;;;;;;;;;5015864;28;20112;-77
2023/12/13 00:58:06;;;;;;;8.67;1.20;;;;;;;;;;5034715;28;20533;-77
2023/12/13 01:00:32;;;;;;;5.17;0.97;;;;;;;;;;5017003;28;20038;-78
2023/12/13 01:02:58;;;;;;;2.27;0.80;;;;;;;;;;5017418;28;20083;-78
2023/12/13 01:05:24;;;;;;;4.23;1.57;;;;;;;;;;5015347;28;20022;-77
2023/12/13 01:07:52;;;;;;;4.57;1.17;;;;;;;;;;5018598;28;20442;-77
2023/12/13 01:10:20;;;;;;;5.10;1.10;;;;;;;;;;5017406;28;20038;-77
2023/12/13 01:12:46;;;;;;;8.57;1.47;;;;;;;;;;5033456;28;20029;-78
2023/12/13 01:15:12;;;;;;;7.70;1.33;;;;;;;;;;5017022;28;20037;-77
2023/12/13 01:17:38;;;;;;;5.30;1.30;;;;;;;;;;5034597;28;20029;-78
2023/12/13 01:20:06;;;;;;;6.50;1.70;;;;;;;;;;5018521;28;20029;-77
2023/12/13 01:22:33;;;;;;;8.33;1.70;;;;;;;;;;5017208;28;20401;-77
2023/12/13 01:25:02;;;;;;;9.13;1.23;;;;;;;;;;5017234;28;20045;-76
2023/12/13 01:27:28;;;;;;;6.93;1.40;;;;;;;;;;5034511;28;20458;-77
2023/12/13 01:30:03;;;;;;;4.47;1.37;;;;;;;;;;5015788;28;20115;-77
2023/12/13 01:32:29;;;;;;;5.93;1.30;;;;;;;;;;5016421;28;20468;-77
2023/12/13 01:34:55;;;;;;;4.93;1.43;;;;;;;;;;5035577;28;20032;-77
2023/12/13 01:37:21;;;;;;;7.57;1.30;;;;;;;;;;5018384;28;20029;-77
2023/12/13 01:39:47;;;;;;;4.43;1.50;;;;;;;;;;5014263;28;20793;-78
2023/12/13 01:42:13;;;;;;;6.53;1.30;;;;;;;;;;5018770;28;20041;-77
2023/12/13 01:44:41;;;;;;;3.97;1.37;;;;;;;;;;5016932;28;20602;-78
2023/12/13 01:47:08;;;;;;;7.63;1.60;;;;;;;;;;5015877;28;20061;-78
2023/12/13 01:49:37;;;;;;;5.60;1.37;;;;;;;;;;5032809;28;20068;-78
2023/12/13 01:52:03;;;;;;;9.00;1.73;;;;;;;;;;5015600;28;20125;-77
2023/12/13 01:54:29;;;;;;;7.93;1.50;;;;;;;;;;5032785;28;20025;-77
2023/12/13 01:56:55;;;;;;;6.07;1.60;;;;;;;;;;5015922;28;20347;-77
2023/12/13 01:59:21;;;;;;;8.77;1.30;;;;;;;;;;5015733;28;20044;-76
2023/12/13 02:01:47;;;;;;;9.57;1.53;;;;;;;;;;5013836;28;20469;-76
2023/12/13 02:04:17;;;;;;;6.60;1.63;;;;;;;;;;5013953;28;20033;-77
2023/12/13 02:06:43;;;;;;;10.33;1.93;;;;;;;;;;5014554;28;20044;-77
2023/12/13 02:09:09;;;;;;;6.27;1.73;;;;;;;;;;5015547;28;20025;-78
2023/12/13 02:11:36;;;;;;;4.60;1.80;;;;;;;;;;5015857;28;20026;-77
2023/12/13 02:14:04;;;;;;;8.27;1.50;;;;;;;;;;5015851;28;20057;-78
2023/12/13 02:16:32;;;;;;;4.20;1.73;;;;;;;;;;5016111;28;20455;-77
2023/12/13 02:18:58;;;;;;;9.40;2.17;;;;;;;;;;5033094;28;20068;-77
2023/12/13 02:21:25;;;;;;;9.10;1.87;;;;;;;;;;5016076;28;20049;-77
2023/12/13 02:23:56;;;;;;;7.13;1.97;;;;;;;;;;5015831;28;20032;-77
2023/12/13 02:26:22;;;;;;;7.00;1.55;;;;;;;;;;5017218;28;20033;-78
2023/12/13 02:28:49;;;;;;;5.93;1.87;;;;;;;;;;5016137;28;20041;-77
2023/12/13 02:31:16;;;;;;;9.43;1.67;;;;;;;;;;5014178;28;20031;-77
2023/12/13 02:33:43;;;;;;;8.50;1.87;;;;;;;;;;5015431;28;20029;-77
2023/12/13 02:36:09;;;;;;;9.03;2.20;;;;;;;;;;5012675;28;20021;-78
2023/12/13 02:38:35;;;;;;;11.37;2.73;;;;;;;;;;5012169;28;21676;-77
2023/12/13 02:41:01;;;;;;;6.63;2.40;;;;;;;;;;5014680;28;20079;-77
2023/12/13 02:43:36;;;;;;;11.50;3.17;;;;;;;;;;5015326;28;20040;-77
2023/12/13 02:46:02;;;;;;;7.30;2.53;;;;;;;;;;5033132;28;20026;-78
2023/12/13 02:48:28;;;;;;;8.53;2.80;;;;;;;;;;5031930;28;20032;-77
2023/12/13 02:50:54;;;;;;;7.80;2.63;;;;;;;;;;5031350;28;20045;-77
2023/12/13 02:53:20;;;;;;;6.03;3.17;;;;;;;;;;5033092;28;20037;-77
2023/12/13 02:55:48;;;;;;;5.73;2.40;;;;;;;;;;5015036;28;20029;-77
2023/12/13 02:58:14;;;;;;;10.53;2.70;;;;;;;;;;5014385;28;20030;-78
2023/12/13 03:00:43;;;;;;;11.97;3.00;;;;;;;;;;5031476;28;20366;-77
2023/12/13 03:03:09;;;;;;;13.33;2.83;;;;;;;;;;5013506;28;20132;-78
2023/12/13 03:05:35;;;;;;;6.53;2.70;;;;;;;;;;5014821;28;20112;-78
2023/12/13 03:08:01;;;;;;;7.43;3.17;;;;;;;;;;5028012;28;20038;-78
2023/12/13 03:10:28;;;;;;;9.43;3.00;;;;;;;;;;5013159;28;20975;-78
2023/12/13 03:12:54;;;;;;;10.57;3.27;;;;;;;;;;5013895;28;20090;-77
2023/12/13 03:15:20;;;;;;;13.43;2.80;;;;;;;;;;5011257;28;20044;-77
2023/12/13 03:17:46;;;;;;;12.97;3.20;;;;;;;;;;5021609;28;20025;-77
2023/12/13 03:20:12;;;;;;;16.10;3.00;;;;;;;;;;5013566;28;20902;-77
2023/12/13 03:22:38;;;;;;;10.33;3.43;;;;;;;;;;5008123;28;20033;-78
2023/12/13 03:25:05;;;;;;;9.70;3.43;;;;;;;;;;5009093;28;20116;-78
2023/12/13 03:27:31;;;;;;;8.13;3.00;;;;;;;;;;5031999;28;20038;-77
2023/12/13 03:29:57;;;;;;;22.83;3.60;;;;;;;;;;5013593;28;20053;-77
2023/12/13 03:32:22;;;;;;;13.03;3.57;;;;;;;;;;5033104;28;20041;-77
2023/12/13 03:34:53;;;;;;;9.13;3.03;;;;;;;;;;5008055;28;20029;-78
2023/12/13 03:37:19;;;;;;;7.37;3.30;;;;;;;;;;5015224;28;20037;-77
2023/12/13 03:39:45;;;;;;;9.83;3.03;;;;;;;;;;5014844;28;20334;-78
2023/12/13 03:42:13;;;;;;;14.80;3.60;;;;;;;;;;5013899;28;20029;-77
2023/12/13 03:44:39;;;;;;;10.53;4.10;;;;;;;;;;5010803;28;20063;-77
2023/12/13 03:47:05;;;;;;;7.90;3.03;;;;;;;;;;5031471;28;20033;-77
2023/12/13 03:49:31;;;;;;;9.90;3.87;;;;;;;;;;5032824;28;20449;-78
2023/12/13 03:51:57;;;;;;;11.87;3.30;;;;;;;;;;5012007;28;20030;-77
2023/12/13 03:54:23;;;;;;;15.23;3.53;;;;;;;;;;5016781;28;20029;-77
2023/12/13 03:56:49;;;;;;;13.67;2.90;;;;;;;;;;5014024;28;20044;-77
2023/12/13 03:59:15;;;;;;;12.03;3.30;;;;;;;;;;5027319;28;20148;-78
2023/12/13 04:01:41;;;;;;;11.90;3.53;;;;;;;;;;5012449;28;20206;-77
2023/12/13 04:04:07;;;;;;;15.50;3.37;;;;;;;;;;5013909;28;20446;-78
2023/12/13 04:06:33;;;;;;;10.90;3.23;;;;;;;;;;5014387;28;20036;-78
2023/12/13 04:08:59;;;;;;;12.40;3.67;;;;;;;;;;5030376;28;20121;-78
2023/12/13 04:11:25;;;;;;;16.63;3.70;;;;;;;;;;5011365;28;20032;-77
2023/12/13 04:13:52;;;;;;;19.10;4.30;;;;;;;;;;5014493;28;20072;-78
2023/12/13 04:16:18;;;;;;;10.23;4.13;;;;;;;;;;5011626;28;20025;-78
2023/12/13 04:18:44;;;;;;;11.90;3.73;;;;;;;;;;5013573;28;20338;-77
2023/12/13 04:21:10;;;;;;;16.73;4.70;;;;;;;;;;5030196;28;20075;-77
2023/12/13 04:23:36;;;;;;;16.40;4.37;;;;;;;;;;5029311;28;20108;-77
2023/12/13 04:26:02;;;;;;;13.43;3.87;;;;;;;;;;5015785;28;20025;-77
2023/12/13 04:28:28;;;;;;;19.03;5.30;;;;;;;;;;5033566;28;20052;-77
2023/12/13 04:30:54;;;;;;;15.40;3.50;;;;;;;;;;5017996;28;20029;-77
2023/12/13 04:33:20;;;;;;;13.90;3.07;;;;;;;;;;5018191;28;20068;-77
2023/12/13 04:35:46;;;;;;;9.03;3.73;;;;;;;;;;5010835;28;20034;-77
2023/12/13 04:38:12;;;;;;;8.37;2.57;;;;;;;;;;5014877;28;20060;-77
2023/12/13 04:40:39;;;;;;;9.93;3.00;;;;;;;;;;5017353;28;20034;-77
2023/12/13 04:43:04;;;;;;;8.63;3.23;;;;;;;;;;5020724;28;20029;-77
2023/12/13 04:45:30;;;;;;;14.13;2.87;;;;;;;;;;5021805;28;20347;-77
2023/12/13 04:47:56;;;;;;;16.83;3.43;;;;;;;;;;5006580;28;20033;-76
2023/12/13 04:50:22;;;;;;;11.40;2.90;;;;;;;;;;5007027;28;20072;-77
2023/12/13 04:52:51;;;;;;;11.73;2.90;;;;;;;;;;5008489;28;20191;-77
2023/12/13 04:55:17;;;;;;;11.53;3.07;;;;;;;;;;5010167;28;20029;-77
2023/12/13 04:57:42;;;;;;;7.20;3.27;;;;;;;;;;5021030;28;20487;-77
2023/12/13 05:00:09;;;;;;;16.73;3.47;;;;;;;;;;5021169;28;20029;-77
2023/12/13 05:02:35;;;;;;;10.43;3.53;;;;;;;;;;5016023;28;20033;-77
2023/12/13 05:05:01;;;;;;;13.43;3.10;;;;;;;;;;5019944;28;20512;-77
2023/12/13 05:07:29;;;;;;;17.47;3.77;;;;;;;;;;5037658;28;20040;-77
2023/12/13 05:09:56;;;;;;;11.10;3.13;;;;;;;;;;5020601;28;20029;-77
2023/12/13 05:12:21;;;;;;;8.97;3.40;;;;;;;;;;5021228;28;20030;-77
2023/12/13 05:14:47;;;;;;;15.73;3.33;;;;;;;;;;5012778;28;20025;-78
2023/12/13 05:17:14;;;;;;;18.70;3.87;;;;;;;;;;5015770;28;20029;-77
2023/12/13 05:19:42;;;;;;;9.03;3.57;;;;;;;;;;5037127;28;20503;-76
2023/12/13 05:22:08;;;;;;;16.00;3.83;;;;;;;;;;5018793;28;20458;-77
2023/12/13 05:24:34;;;;;;;13.67;3.43;;;;;;;;;;5036442;28;20034;-78
2023/12/13 05:27:00;;;;;;;16.17;4.13;;;;;;;;;;5020553;28;20337;-78
2023/12/13 05:29:26;;;;;;;12.37;3.23;;;;;;;;;;5017924;28;20057;-77
2023/12/13 05:31:51;;;;;;;18.47;4.60;;;;;;;;;;5008834;28;20040;-78
2023/12/13 05:34:20;;;;;;;13.07;3.40;;;;;;;;;;5019060;28;20438;-77
2023/12/13 05:36:46;;;;;;;11.87;3.60;;;;;;;;;;5020617;28;20029;-77
2023/12/13 05:39:14;;;;;;;12.57;3.70;;;;;;;;;;5020970;28;20069;-78
2023/12/13 05:41:40;;;;;;;10.03;3.30;;;;;;;;;;5011228;28;20064;-77
2023/12/13 05:44:06;;;;;;;8.77;3.30;;;;;;;;;;5017414;28;20030;-77
2023/12/13 05:46:33;;;;;;;9.20;3.50;;;;;;;;;;5016017;28;20044;-77
2023/12/13 05:49:01;;;;;;;14.33;4.30;;;;;;;;;;5023756;28;20037;-77
2023/12/13 05:51:30;;;;;;;13.60;4.33;;;;;;;;;;5020300;28;20037;-77
2023/12/13 05:53:56;;;;;;;21.57;5.43;;;;;;;;;;5013193;28;20037;-77
2023/12/13 05:56:27;;;;;;;14.87;5.20;;;;;;;;;;5011627;28;20030;-78
2023/12/13 05:58:54;;;;;;;22.37;5.60;;;;;;;;;;5021446;28;20033;-77
2023/12/13 06:01:20;;;;;;;18.00;5.40;;;;;;;;;;5017361;28;20044;-77
2023/12/13 06:03:45;;;;;;;16.40;5.20;;;;;;;;;;5020081;28;20026;-78
2023/12/13 06:06:11;;;;;;;20.93;6.00;;;;;;;;;;5015357;28;20080;-77
2023/12/13 06:08:39;;;;;;;18.53;5.77;;;;;;;;;;5031253;28;20480;-78
2023/12/13 06:11:08;;;;;;;15.37;6.20;;;;;;;;;;5029081;28;20438;-78
2023/12/13 06:13:34;;;;;;;17.83;6.87;;;;;;;;;;5019520;28;20064;-77
2023/12/13 06:16:01;;;;;;;15.67;6.13;;;;;;;;;;5010885;28;20014;-77
2023/12/13 06:18:27;;;;;;;15.27;7.10;;;;;;;;;;5012545;28;20037;-77
2023/12/13 06:20:53;;;;;;;17.67;6.03;;;;;;;;;;5018369;28;20030;-78
2023/12/13 06:23:23;;;;;;;19.30;6.23;;;;;;;;;;5016106;28;20025;-77
2023/12/13 06:25:49;;;;;;;17.20;6.20;;;;;;;;;;5019019;28;20075;-77
2023/12/13 06:28:15;;;;;;;20.50;6.20;;;;;;;;;;5010343;28;20061;-78
2023/12/13 06:30:42;;;;;;;24.90;7.13;;;;;;;;;;5032329;28;20033;-77
2023/12/13 06:33:08;;;;;;;16.27;5.93;;;;;;;;;;5015889;28;20025;-78
2023/12/13 06:35:36;;;;;;;14.23;5.53;;;;;;;;;;5033133;28;20030;-78
2023/12/13 06:38:02;;;;;;;15.07;5.77;;;;;;;;;;5013813;28;20029;-77
2023/12/13 06:40:28;;;;;;;20.90;6.63;;;;;;;;;;5016054;28;20365;-77
2023/12/13 06:42:54;;;;;;;22.57;6.60;;;;;;;;;;5032653;28;20037;-77
2023/12/13 06:45:23;;;;;;;22.73;6.97;;;;;;;;;;5014935;28;20028;-77
2023/12/13 06:47:49;;;;;;;18.90;7.10;;;;;;;;;;5015136;28;20116;-77
2023/12/13 06:50:15;;;;;;;18.63;7.13;;;;;;;;;;5015337;28;20120;-78
2023/12/13 06:52:41;;;;;;;15.10;6.60;;;;;;;;;;5011975;28;20458;-77
2023/12/13 06:55:07;;;;;;;21.07;7.57;;;;;;;;;;5032283;28;20025;-77
2023/12/13 06:57:33;;;;;;;15.03;6.37;;;;;;;;;;5013639;28;20040;-78
2023/12/13 06:59:59;;;;;;;12.50;5.67;;;;;;;;;;5013812;28;20366;-77
2023/12/13 07:02:25;;;;;;;22.83;6.80;;;;;;;;;;5015765;28;20112;-77
2023/12/13 07:04:53;;;;;;;25.03;6.73;;;;;;;;;;5013467;28;20363;-77
2023/12/13 07:07:19;;;;;;;23.97;6.93;;;;;;;;;;5015287;28;20033;-77
2023/12/13 07:09:45;;;;;;;20.17;5.53;;;;;;;;;;5014537;28;20026;-78
2023/12/13 07:12:11;;;;;;;19.23;5.93;;;;;;;;;;5031428;28;20091;-77
2023/12/13 07:14:40;;;;;;;21.10;6.83;;;;;;;;;;5013042;28;20382;-77
2023/12/13 07:17:06;;;;;;;18.87;6.57;;;;;;;;;;5014152;28;20036;-77
2023/12/13 07:19:32;;;;;;;18.03;5.63;;;;;;;;;;5031660;28;20033;-77
2023/12/13 07:21:58;;;;;;;15.20;4.30;;;;;;;;;;5013378;28;20025;-77
2023/12/13 07:24:24;;;;;;;11.83;5.03;;;;;;;;;;5014389;28;20771;-78
2023/12/13 07:26:50;;;;;;;14.43;5.13;;;;;;;;;;5015023;28;20039;-78
2023/12/13 07:29:16;;;;;;;23.17;8.80;;;;;;;;;;5014129;28;20365;-76
2023/12/13 07:31:42;;;;;;;20.87;7.07;;;;;;;;;;5012698;28;20029;-78
2023/12/13 07:34:11;;;;;;;19.07;6.50;;;;;;;;;;5013822;28;20040;-78
2023/12/13 07:36:37;;;;;;;17.20;4.27;;;;;;;;;;5015657;28;20597;-79
2023/12/13 07:39:04;;;;;;;10.87;5.13;;;;;;;;;;5016635;28;20060;-78
2023/12/13 07:41:30;;;;;;;16.90;4.77;;;;;;;;;;5013518;28;20048;-78
2023/12/13 07:43:56;;;;;;;12.83;3.93;;;;;;;;;;5016365;28;20369;-80
2023/12/13 07:46:22;;;;;;;15.70;4.97;;;;;;;;;;5015129;28;20112;-78
2023/12/13 07:48:51;;;;;;;12.67;4.63;;;;;;;;;;5013958;28;20030;-78
2023/12/13 07:51:17;;;;;;;17.33;4.90;;;;;;;;;;5013595;28;20454;-78
2023/12/13 07:53:43;;;;;;;14.43;4.67;;;;;;;;;;5014574;28;20148;-78
2023/12/13 07:56:09;;;;;;;9.70;3.97;;;;;;;;;;5015905;28;21608;-78
2023/12/13 07:58:35;;;;;;;20.03;3.90;;;;;;;;;;5033827;28;20018;-78
2023/12/13 08:01:01;;;;;;;13.30;4.87;;;;;;;;;;5017367;28;20048;-78
2023/12/13 08:03:27;;;;;;;21.07;4.43;;;;;;;;;;5016309;28;20369;-78
2023/12/13 08:05:53;;;;;;;14.70;4.37;;;;;;;;;;5019696;28;20041;-78
2023/12/13 08:08:19;;;;;;;15.73;4.13;;;;;;;;;;5016820;28;20034;-78
2023/12/13 08:10:46;;;;;;;10.30;3.73;;;;;;;;;;5020304;28;20080;-78
2023/12/13 08:13:12;;;;;;;13.07;4.17;;;;;;;;;;5018459;28;20610;-78
2023/12/13 08:15:38;;;;;;;20.40;3.87;;;;;;;;;;5020188;28;20033;-78
2023/12/13 08:18:04;;;;;;;11.73;4.53;;;;;;;;;;5022143;28;20034;-78
2023/12/13 08:20:30;;;;;;;14.47;4.33;;;;;;;;;;5020154;28;20120;-77
2023/12/13 08:22:57;;;;;;;18.43;3.90;;;;;;;;;;5020366;28;20025;-78
2023/12/13 08:25:22;;;;;;;16.37;4.33;;;;;;;;;;5021255;28;20044;-78
2023/12/13 08:27:51;;;;;;;12.03;4.07;;;;;;;;;;5036313;28;20018;-78
2023/12/13 08:30:21;;;;;;;12.03;3.30;;;;;;;;;;5035329;28;20057;-78
2023/12/13 08:32:47;;;;;;;16.70;4.57;;;;;;;;;;5019181;28;20442;-77
2023/12/13 08:35:13;;;;;;;11.90;4.13;;;;;;;;;;5018598;28;20043;-78
2023/12/13 08:37:39;;;;;;;20.40;4.60;;;;;;;;;;5018406;28;20033;-78
2023/12/13 08:40:05;;;;;;;18.63;4.67;;;;;;;;;;5018908;28;20492;-78
2023/12/13 08:42:31;;;;;;;14.13;3.67;;;;;;;;;;5016772;28;20037;-78
2023/12/13 08:44:57;;;;;;;12.80;3.60;;;;;;;;;;5017944;28;20041;-77
2023/12/13 08:47:23;;;;;;;10.57;3.90;;;;;;;;;;5032935;28;20064;-78
2023/12/13 08:49:54;;;;;;;11.97;3.27;;;;;;;;;;5018040;28;20064;-78
2023/12/13 08:52:20;;;;;;;12.83;3.93;;;;;;;;;;5015196;28;20092;-78
2023/12/13 08:54:49;;;;;;;15.77;4.00;;;;;;;;;;5018135;28;20509;-77
2023/12/13 08:57:15;;;;;;;11.90;3.90;;;;;;;;;;5013075;28;20925;-78
2023/12/13 08:59:41;;;;;;;21.90;4.37;;;;;;;;;;5018324;28;20128;-79
2023/12/13 09:02:07;;;;;;;9.13;3.83;;;;;;;;;;5018582;28;21745;-79
2023/12/13 09:04:35;;;;;;;15.90;4.40;;;;;;;;;;5016128;28;20099;-79
2023/12/13 09:07:01;;;;;;;12.70;3.80;;;;;;;;;;5015667;28;20033;-80
2023/12/13 09:09:27;;;;;;;13.40;3.60;;;;;;;;;;5011380;28;20517;-79
2023/12/13 09:11:54;;;;;;;11.00;3.97;;;;;;;;;;5036265;28;20021;-79
2023/12/13 09:14:20;;;;;;;25.17;5.77;;;;;;;;;;5029200;28;20441;-79
2023/12/13 09:16:46;;;;;;;17.03;3.83;;;;;;;;;;5017946;28;20025;-79
2023/12/13 09:19:12;;;;;;;8.80;3.07;;;;;;;;;;5016285;28;20041;-79
2023/12/13 09:21:38;;;;;;;11.83;3.80;;;;;;;;;;5014267;28;20029;-77
2023/12/13 09:24:04;;;;;;;16.70;4.63;;;;;;;;;;5018376;28;20025;-78
2023/12/13 09:26:30;;;;;;;12.37;3.70;;;;;;;;;;5011768;28;20021;-78
2023/12/13 09:28:58;;;;;;;14.83;4.20;;;;;;;;;;5035159;28;20523;-78
2023/12/13 09:31:24;;;;;;;21.97;5.53;;;;;;;;;;5035098;28;20033;-78
2023/12/13 09:33:52;;;;;;;11.03;4.53;;;;;;;;;;5034007;28;20109;-79
2023/12/13 09:36:18;;;;;;;16.13;3.83;;;;;;;;;;5030698;28;20022;-78
2023/12/13 09:38:46;;;;;;;18.43;4.63;;;;;;;;;;5017298;28;20033;-79
2023/12/13 09:41:17;;;;;;;14.73;4.17;;;;;;;;;;5034510;28;20581;-77
2023/12/13 09:43:45;;;;;;;14.23;4.13;;;;;;;;;;5032909;28;20028;-77
2023/12/13 09:46:13;;;;;;;15.93;4.47;;;;;;;;;;5012186;28;20025;-77
2023/12/13 09:48:39;;;;;;;9.53;3.70;;;;;;;;;;5016551;28;20044;-77
2023/12/13 09:51:10;;;;;;;11.70;3.90;;;;;;;;;;5015838;28;20095;-77
2023/12/13 09:53:38;;;;;;;17.70;4.90;;;;;;;;;;5013762;28;20037;-78
2023/12/13 09:56:04;;;;;;;10.00;3.83;;;;;;;;;;5015719;28;20627;-77
2023/12/13 09:58:30;;;;;;;17.00;4.60;;;;;;;;;;5024119;28;20040;-77
2023/12/13 10:00:56;;;;;;;10.73;4.60;;;;;;;;;;5013365;28;20429;-77
2023/12/13 10:03:22;;;;;;;12.70;3.73;;;;;;;;;;5014771;28;20326;-78
2023/12/13 10:05:49;;;;;;;13.70;4.27;;;;;;;;;;5016048;28;20037;-77
2023/12/13 10:08:15;;;;;;;12.87;4.53;;;;;;;;;;5013201;28;20029;-79
2023/12/13 10:10:46;;;;;;;10.77;3.17;;;;;;;;;;5014821;28;20350;-78
2023/12/13 10:13:12;;;;;;;15.70;3.43;;;;;;;;;;5031009;28;20052;-78
2023/12/13 10:15:38;;;;;;;9.67;3.37;;;;;;;;;;5016419;28;20026;-78
2023/12/13 10:18:04;;;;;;;9.67;3.87;;;;;;;;;;5036247;28;20091;-77
2023/12/13 10:20:31;;;;;;;10.97;3.23;;;;;;;;;;5017154;28;20029;-78
2023/12/13 10:22:57;;;;;;;13.97;3.37;;;;;;;;;;5034833;28;20044;-77
2023/12/13 10:25:23;;;;;;;11.07;3.20;;;;;;;;;;5016380;28;20063;-77
2023/12/13 10:27:54;;;;;;;10.47;3.00;;;;;;;;;;5017095;28;20033;-78
2023/12/13 10:30:20;;;;;;;7.03;3.47;;;;;;;;;;5016701;28;20029;-78
2023/12/13 10:32:46;;;;;;;7.80;2.60;;;;;;;;;;5014413;28;20115;-78
2023/12/13 10:35:12;;;;;;;7.47;3.20;;;;;;;;;;5016147;28;20651;-77
2023/12/13 10:37:42;;;;;;;10.37;3.13;;;;;;;;;;5029076;28;20088;-77
2023/12/13 10:40:10;;;;;;;13.00;3.57;;;;;;;;;;5030182;28;20091;-78
2023/12/13 10:42:40;;;;;;;14.47;3.47;;;;;;;;;;5016705;28;20037;-77
2023/12/13 10:45:06;;;;;;;12.97;3.53;;;;;;;;;;5010896;28;20135;-78
2023/12/13 10:47:36;;;;;;;10.30;3.43;;;;;;;;;;5018249;28;20335;-78
2023/12/13 10:50:02;;;;;;;11.93;3.37;;;;;;;;;;5011266;28;20465;-78
2023/12/13 10:52:28;;;;;;;14.93;3.50;;;;;;;;;;5011273;28;20029;-78
2023/12/13 10:54:54;;;;;;;13.40;3.97;;;;;;;;;;5016763;28;20565;-78
2023/12/13 10:57:21;;;;;;;16.10;3.60;;;;;;;;;;5019016;28;20030;-78
2023/12/13 10:59:48;;;;;;;12.73;3.40;;;;;;;;;;5019390;28;20055;-78
2023/12/13 11:02:19;;;;;;;15.73;4.10;;;;;;;;;;5018958;28;20069;-77
2023/12/13 11:04:45;;;;;;;9.93;2.47;;;;;;;;;;5016468;28;20372;-78
2023/12/13 11:07:14;;;;;;;11.97;2.80;;;;;;;;;;5010869;28;20033;-77
2023/12/13 11:09:50;;;;;;;9.97;2.97;;;;;;;;;;5014368;28;20095;-78
2023/12/13 11:12:18;;;;;;;11.23;3.07;;;;;;;;;;5019056;28;20029;-79
2023/12/13 11:14:47;;;;;;;11.20;2.90;;;;;;;;;;5018020;28;20032;-77
2023/12/13 11:17:13;;;;;;;11.00;2.97;;;;;;;;;;5015548;28;20038;-78
2023/12/13 11:19:39;;;;;;;9.73;2.40;;;;;;;;;;5007102;28;20033;-78
2023/12/13 11:22:08;;;;;;;10.43;3.17;;;;;;;;;;5015578;28;20175;-78
2023/12/13 11:24:36;;;;;;;9.50;3.00;;;;;;;;;;5011020;28;20072;-78
2023/12/13 11:27:10;;;;;;;8.77;2.30;;;;;;;;;;5012825;28;20422;-78
2023/12/13 11:29:36;;;;;;;7.80;2.50;;;;;;;;;;5017505;28;20041;-77
2023/12/13 11:32:03;;;;;;;11.70;2.87;;;;;;;;;;5018578;28;20331;-77
2023/12/13 11:34:35;;;;;;;14.73;4.77;;;;;;;;;;5018636;28;20021;-77
2023/12/13 11:37:05;;;;;;;10.30;3.53;;;;;;;;;;5032993;28;20042;-79
2023/12/13 11:39:32;;;;;;;10.00;2.80;;;;;;;;;;5006803;28;20064;-77
2023/12/13 11:41:58;;;;;;;11.37;4.03;;;;;;;;;;5011199;28;20173;-77
2023/12/13 11:44:32;;;;;;;14.07;3.73;;;;;;;;;;5018182;28;20029;-77
2023/12/13 11:47:03;;;;;;;11.63;2.63;;;;;;;;;;5009216;28;20055;-77
2023/12/13 11:49:29;;;;;;;6.27;2.10;;;;;;;;;;5033950;28;20350;-76
2023/12/13 11:51:55;;;;;;;12.83;2.30;;;;;;;;;;5018391;28;20390;-77
2023/12/13 11:54:22;;;;;;;9.93;1.97;;;;;;;;;;5006758;28;20040;-77
2023/12/13 11:56:48;;;;;;;6.13;1.50;;;;;;;;;;5018826;28;20026;-77
2023/12/13 11:59:14;;;;;;;10.20;2.00;;;;;;;;;;5018457;28;20087;-77
2023/12/13 12:01:40;;;;;;;8.13;1.70;;;;;;;;;;5018200;28;20053;-77
2023/12/13 12:04:07;;;;;;;10.37;1.73;;;;;;;;;;5034698;28;20108;-77
2023/12/13 12:06:35;;;;;;;9.10;2.00;;;;;;;;;;5007809;28;20026;-77
2023/12/13 12:09:04;;;;;;;11.00;1.90;;;;;;;;;;5010280;28;20542;-77
2023/12/13 12:11:30;;;;;;;7.90;2.77;;;;;;;;;;5019452;28;20026;-77
2023/12/13 12:13:56;;;;;;;5.70;1.83;;;;;;;;;;5011736;28;20026;-77
2023/12/13 12:16:22;;;;;;;7.93;1.70;;;;;;;;;;5030605;28;20022;-77
2023/12/13 12:18:48;;;;;;;10.47;1.93;;;;;;;;;;5031045;28;20021;-78
2023/12/13 12:21:15;;;;;;;12.87;2.53;;;;;;;;;;5013722;28;20033;-77
2023/12/13 12:23:42;;;;;;;9.10;2.40;;;;;;;;;;5016276;28;20014;-77
2023/12/13 12:26:09;;;;;;;12.77;2.17;;;;;;;;;;5016893;28;20087;-77
2023/12/13 12:28:35;;;;;;;10.40;2.40;;;;;;;;;;5014120;28;20059;-77
2023/12/13 12:31:08;;;;;;;9.07;1.47;;;;;;;;;;5014548;28;20026;-77
2023/12/13 12:33:36;;;;;;;10.73;2.10;;;;;;;;;;5016055;28;20017;-76
2023/12/13 12:36:02;;;;;;;5.43;1.27;;;;;;;;;;5009503;28;20099;-76
2023/12/13 12:38:28;;;;;;;10.73;1.50;;;;;;;;;;5029588;28;20037;-77
2023/12/13 12:40:54;;;;;;;11.67;1.53;;;;;;;;;;5011731;28;20362;-78
2023/12/13 12:43:21;;;;;;;7.23;1.80;;;;;;;;;;5019716;28;20573;-77
2023/12/13 12:45:47;;;;;;;13.77;2.23;;;;;;;;;;5028067;28;20095;-76
2023/12/13 12:48:14;;;;;;;7.93;1.70;;;;;;;;;;5012890;28;20501;-76
2023/12/13 12:50:40;;;;;;;9.20;2.23;;;;;;;;;;5014405;28;20332;-76
2023/12/13 12:53:07;;;;;;;9.10;2.00;;;;;;;;;;5014882;28;20045;-75
2023/12/13 12:55:33;;;;;;;13.77;1.93;;;;;;;;;;5014571;28;20030;-76
2023/12/13 12:57:59;;;;;;;11.07;1.57;;;;;;;;;;5012917;28;20041;-77
2023/12/13 13:00:25;;;;;;;8.57;1.50;;;;;;;;;;5015741;28;20040;-76
2023/12/13 13:02:55;;;;;;;10.03;2.20;;;;;;;;;;5017312;28;20353;-77
2023/12/13 13:05:21;;;;;;;9.53;1.87;;;;;;;;;;5016968;28;20370;-77
2023/12/13 13:07:47;;;;;;;10.37;2.47;;;;;;;;;;5015135;28;20084;-77
2023/12/13 13:10:13;;;;;;;7.80;1.53;;;;;;;;;;5015969;28;20055;-77
2023/12/13 13:12:42;;;;;;;13.70;1.87;;;;;;;;;;5032918;28;20040;-77
2023/12/13 13:15:11;;;;;;;12.70;2.00;;;;;;;;;;5014525;28;20025;-76
2023/12/13 13:17:37;;;;;;;6.57;1.53;;;;;;;;;;5016658;28;20476;-77
2023/12/13 13:20:12;;;;;;;6.23;1.00;;;;;;;;;;5037711;28;20061;-77
2023/12/13 13:22:39;;;;;;;9.83;1.53;;;;;;;;;;5014754;28;20430;-78
2023/12/13 13:25:08;;;;;;;9.97;2.30;;;;;;;;;;5015232;28;20124;-77
2023/12/13 13:27:34;;;;;;;7.13;1.93;;;;;;;;;;5032775;28;20063;-77
2023/12/13 13:30:00;;;;;;;6.93;1.30;;;;;;;;;;5016603;28;20331;-77
2023/12/13 13:32:29;;;;;;;8.80;1.30;;;;;;;;;;5014549;28;20057;-77
2023/12/13 13:34:55;;;;;;;5.50;1.97;;;;;;;;;;5032286;28;20022;-77
2023/12/13 13:37:21;;;;;;;6.57;1.63;;;;;;;;;;5014927;28;20036;-77
2023/12/13 13:39:48;;;;;;;5.80;1.13;;;;;;;;;;5013381;28;20029;-77
2023/12/13 13:42:14;;;;;;;10.87;1.87;;;;;;;;;;5012096;28;20051;-77
2023/12/13 13:44:45;;;;;;;5.50;1.90;;;;;;;;;;5016058;28;20036;-77
2023/12/13 13:47:14;;;;;;;5.43;1.20;;;;;;;;;;5015065;28;20034;-77
2023/12/13 13:49:40;;;;;;;10.67;2.87;;;;;;;;;;5015641;28;20044;-76
2023/12/13 13:52:06;;;;;;;6.37;1.37;;;;;;;;;;5015286;28;20037;-77
2023/12/13 13:54:32;;;;;;;8.60;1.57;;;;;;;;;;5015147;28;20029;-77
2023/12/13 13:56:58;;;;;;;6.03;1.50;;;;;;;;;;5015406;28;20033;-76
2023/12/13 13:59:24;;;;;;;7.23;1.43;;;;;;;;;;5016525;28;20089;-77
2023/12/13 14:01:53;;;;;;;5.63;1.07;;;;;;;;;;5014373;28;20059;-77
2023/12/13 14:04:19;;;;;;;5.97;1.23;;;;;;;;;;5015248;28;20061;-77
2023/12/13 14:06:45;;;;;;;8.63;1.47;;;;;;;;;;5033633;28;20056;-77
2023/12/13 14:09:11;;;;;;;8.53;1.60;;;;;;;;;;5015225;28;20439;-77
2023/12/13 14:11:37;;;;;;;10.33;1.63;;;;;;;;;;5016940;28;20032;-77
2023/12/13 14:14:03;;;;;;;10.47;1.37;;;;;;;;;;5015172;28;20127;-77
2023/12/13 14:16:33;;;;;;;7.97;1.53;;;;;;;;;;5013207;28;20036;-76
2023/12/13 14:19:01;;;;;;;5.63;1.10;;;;;;;;;;5031719;28;20053;-77
2023/12/13 14:21:27;;;;;;;7.73;1.80;;;;;;;;;;5015447;28;20060;-77
2023/12/13 14:23:55;;;;;;;9.67;1.77;;;;;;;;;;5012174;28;20578;-77
2023/12/13 14:26:21;;;;;;;11.33;1.50;;;;;;;;;;5014572;28;20034;-77
2023/12/13 14:28:49;;;;;;;11.53;1.90;;;;;;;;;;5017009;28;20033;-77
2023/12/13 14:31:19;;;;;;;11.27;1.50;;;;;;;;;;5014885;28;20533;-77
2023/12/13 14:33:45;;;;;;;6.60;1.63;;;;;;;;;;5032524;28;20025;-77